sensor_id;sensor_type;location;lat;lon;timestamp;P1;durP1;ratioP1;P2;durP2;ratioP2
38053;SDS011;23859;50.672;7.164;2023-02-26T00:00:28;26.40;;;8.55;;
38053;SDS011;23859;50.672;7.164;2023-02-26T00:02:54;35.58;;;9.55;;
38053;SDS011;23859;50.672;7.164;2023-02-26T00:05:20;25.42;;;9.23;;
38053;SDS011;23859;50.672;7.164;2023-02-26T00:07:46;29.65;;;10.07;;
38053;SDS011;23859;50.672;7.164;2023-02-26T00:10:13;26.10;;;9.80;;
38053;SDS011;23859;50.672;7.164;2023-02-26T00:12:42;24.13;;;8.13;;
38053;SDS011;23859;50.672;7.164;2023-02-26T00:15:10;24.70;;;9.05;;
38053;SDS011;23859;50.672;7.164;2023-02-26T00:17:43;23.50;;;7.93;;
38053;SDS011;23859;50.672;7.164;2023-02-26T00:20:30;32.63;;;10.18;;
38053;SDS011;23859;50.672;7.164;2023-02-26T00:22:56;25.73;;;7.75;;
38053;SDS011;23859;50.672;7.164;2023-02-26T00:25:22;18.17;;;6.63;;
38053;SDS011;23859;50.672;7.164;2023-02-26T00:27:49;20.58;;;5.70;;
38053;SDS011;23859;50.672;7.164;2023-02-26T00:30:15;19.15;;;5.78;;
38053;SDS011;23859;50.672;7.164;2023-02-26T00:32:42;11.10;;;4.95;;
38053;SDS011;23859;50.672;7.164;2023-02-26T00:35:11;15.80;;;4.82;;
38053;SDS011;23859;50.672;7.164;2023-02-26T00:40:20;11.52;;;5.05;;
38053;SDS011;23859;50.672;7.164;2023-02-26T00:42:58;11.90;;;4.03;;
38053;SDS011;23859;50.672;7.164;2023-02-26T00:45:24;15.00;;;4.65;;
38053;SDS011;23859;50.672;7.164;2023-02-26T00:47:55;8.77;;;3.80;;
38053;SDS011;23859;50.672;7.164;2023-02-26T00:50:25;9.25;;;4.95;;
38053;SDS011;23859;50.672;7.164;2023-02-26T00:53:03;21.05;;;6.35;;
38053;SDS011;23859;50.672;7.164;2023-02-26T00:55:42;15.30;;;5.53;;
38053;SDS011;23859;50.672;7.164;2023-02-26T00:58:08;15.25;;;4.93;;
38053;SDS011;23859;50.672;7.164;2023-02-26T01:00:34;16.38;;;4.45;;
38053;SDS011;23859;50.672;7.164;2023-02-26T01:03:00;11.45;;;4.45;;
38053;SDS011;23859;50.672;7.164;2023-02-26T01:05:27;11.40;;;4.30;;
38053;SDS011;23859;50.672;7.164;2023-02-26T01:08:04;12.25;;;5.20;;
38053;SDS011;23859;50.672;7.164;2023-02-26T01:10:43;10.32;;;4.68;;
38053;SDS011;23859;50.672;7.164;2023-02-26T01:13:10;20.27;;;5.22;;
38053;SDS011;23859;50.672;7.164;2023-02-26T01:15:36;12.15;;;4.75;;
38053;SDS011;23859;50.672;7.164;2023-02-26T01:18:15;16.85;;;4.97;;
38053;SDS011;23859;50.672;7.164;2023-02-26T01:20:48;7.60;;;3.80;;
38053;SDS011;23859;50.672;7.164;2023-02-26T01:23:22;18.95;;;5.70;;
38053;SDS011;23859;50.672;7.164;2023-02-26T01:26:00;11.45;;;4.50;;
38053;SDS011;23859;50.672;7.164;2023-02-26T01:28:34;9.73;;;4.22;;
38053;SDS011;23859;50.672;7.164;2023-02-26T01:31:01;11.35;;;4.13;;
38053;SDS011;23859;50.672;7.164;2023-02-26T01:33:39;12.10;;;4.30;;
38053;SDS011;23859;50.672;7.164;2023-02-26T01:36:21;12.05;;;4.18;;
38053;SDS011;23859;50.672;7.164;2023-02-26T01:39:05;11.43;;;4.65;;
38053;SDS011;23859;50.672;7.164;2023-02-26T01:41:42;17.35;;;4.35;;
38053;SDS011;23859;50.672;7.164;2023-02-26T01:44:12;22.33;;;6.88;;
38053;SDS011;23859;50.672;7.164;2023-02-26T01:49:40;12.82;;;4.88;;
38053;SDS011;23859;50.672;7.164;2023-02-26T01:52:58;10.50;;;4.00;;
38053;SDS011;23859;50.672;7.164;2023-02-26T01:55:11;11.55;;;4.45;;
38053;SDS011;23859;50.672;7.164;2023-02-26T01:57:38;9.25;;;4.00;;
38053;SDS011;23859;50.672;7.164;2023-02-26T02:00:04;9.07;;;3.95;;
38053;SDS011;23859;50.672;7.164;2023-02-26T02:02:31;9.95;;;3.80;;
38053;SDS011;23859;50.672;7.164;2023-02-26T02:05:00;9.00;;;5.60;;
38053;SDS011;23859;50.672;7.164;2023-02-26T02:07:29;17.40;;;4.75;;
38053;SDS011;23859;50.672;7.164;2023-02-26T02:09:55;11.40;;;4.28;;
38053;SDS011;23859;50.672;7.164;2023-02-26T02:15:10;14.68;;;5.47;;
38053;SDS011;23859;50.672;7.164;2023-02-26T02:20:40;10.88;;;3.67;;
38053;SDS011;23859;50.672;7.164;2023-02-26T02:23:16;8.82;;;3.63;;
38053;SDS011;23859;50.672;7.164;2023-02-26T02:26:10;8.02;;;3.80;;
38053;SDS011;23859;50.672;7.164;2023-02-26T02:31:39;9.63;;;3.58;;
38053;SDS011;23859;50.672;7.164;2023-02-26T02:34:11;12.73;;;5.68;;
38053;SDS011;23859;50.672;7.164;2023-02-26T02:37:00;8.10;;;3.88;;
38053;SDS011;23859;50.672;7.164;2023-02-26T02:40:00;10.80;;;4.65;;
38053;SDS011;23859;50.672;7.164;2023-02-26T02:42:53;11.65;;;3.92;;
38053;SDS011;23859;50.672;7.164;2023-02-26T02:45:31;11.10;;;4.32;;
38053;SDS011;23859;50.672;7.164;2023-02-26T02:48:34;17.15;;;5.13;;
38053;SDS011;23859;50.672;7.164;2023-02-26T02:51:24;9.65;;;4.72;;
38053;SDS011;23859;50.672;7.164;2023-02-26T02:54:29;12.27;;;4.65;;
38053;SDS011;23859;50.672;7.164;2023-02-26T02:57:09;10.38;;;4.10;;
38053;SDS011;23859;50.672;7.164;2023-02-26T02:59:42;9.95;;;4.75;;
38053;SDS011;23859;50.672;7.164;2023-02-26T03:05:05;9.77;;;5.38;;
38053;SDS011;23859;50.672;7.164;2023-02-26T03:07:33;13.82;;;5.05;;
38053;SDS011;23859;50.672;7.164;2023-02-26T03:10:05;12.85;;;4.38;;
38053;SDS011;23859;50.672;7.164;2023-02-26T03:12:32;20.55;;;5.05;;
38053;SDS011;23859;50.672;7.164;2023-02-26T03:14:59;13.95;;;4.63;;
38053;SDS011;23859;50.672;7.164;2023-02-26T03:25:30;17.05;;;4.90;;
38053;SDS011;23859;50.672;7.164;2023-02-26T03:33:46;15.57;;;4.93;;
38053;SDS011;23859;50.672;7.164;2023-02-26T03:36:23;11.35;;;4.50;;
38053;SDS011;23859;50.672;7.164;2023-02-26T03:39:14;11.85;;;4.13;;
38053;SDS011;23859;50.672;7.164;2023-02-26T03:42:01;10.23;;;5.00;;
38053;SDS011;23859;50.672;7.164;2023-02-26T03:44:36;9.95;;;4.90;;
38053;SDS011;23859;50.672;7.164;2023-02-26T03:47:10;12.77;;;5.05;;
38053;SDS011;23859;50.672;7.164;2023-02-26T03:49:42;7.53;;;4.63;;
38053;SDS011;23859;50.672;7.164;2023-02-26T03:52:33;10.70;;;4.65;;
38053;SDS011;23859;50.672;7.164;2023-02-26T03:55:16;10.23;;;4.80;;
38053;SDS011;23859;50.672;7.164;2023-02-26T03:57:46;8.20;;;4.28;;
38053;SDS011;23859;50.672;7.164;2023-02-26T04:00:14;13.70;;;5.32;;
38053;SDS011;23859;50.672;7.164;2023-02-26T04:02:43;12.30;;;4.65;;
38053;SDS011;23859;50.672;7.164;2023-02-26T04:05:16;11.63;;;5.10;;
38053;SDS011;23859;50.672;7.164;2023-02-26T04:07:46;7.32;;;4.55;;
38053;SDS011;23859;50.672;7.164;2023-02-26T04:10:14;18.52;;;6.35;;
38053;SDS011;23859;50.672;7.164;2023-02-26T04:12:44;11.40;;;4.90;;
38053;SDS011;23859;50.672;7.164;2023-02-26T04:15:10;7.82;;;5.18;;
38053;SDS011;23859;50.672;7.164;2023-02-26T04:17:36;15.82;;;5.38;;
38053;SDS011;23859;50.672;7.164;2023-02-26T04:20:02;12.13;;;5.18;;
38053;SDS011;23859;50.672;7.164;2023-02-26T04:22:33;15.07;;;5.10;;
38053;SDS011;23859;50.672;7.164;2023-02-26T04:25:00;14.05;;;4.88;;
38053;SDS011;23859;50.672;7.164;2023-02-26T04:27:27;10.05;;;4.82;;
38053;SDS011;23859;50.672;7.164;2023-02-26T04:29:53;10.25;;;5.55;;
38053;SDS011;23859;50.672;7.164;2023-02-26T04:32:19;7.85;;;4.88;;
38053;SDS011;23859;50.672;7.164;2023-02-26T04:34:45;11.50;;;4.65;;
38053;SDS011;23859;50.672;7.164;2023-02-26T04:37:11;6.18;;;4.38;;
38053;SDS011;23859;50.672;7.164;2023-02-26T04:39:37;10.43;;;4.82;;
38053;SDS011;23859;50.672;7.164;2023-02-26T04:42:03;7.72;;;4.70;;
38053;SDS011;23859;50.672;7.164;2023-02-26T04:44:29;9.43;;;4.60;;
38053;SDS011;23859;50.672;7.164;2023-02-26T04:46:56;8.35;;;4.40;;
38053;SDS011;23859;50.672;7.164;2023-02-26T04:49:22;6.63;;;4.32;;
38053;SDS011;23859;50.672;7.164;2023-02-26T04:51:51;12.77;;;4.88;;
38053;SDS011;23859;50.672;7.164;2023-02-26T04:54:17;9.07;;;5.00;;
38053;SDS011;23859;50.672;7.164;2023-02-26T04:56:43;7.55;;;4.43;;
38053;SDS011;23859;50.672;7.164;2023-02-26T04:59:09;13.65;;;4.45;;
38053;SDS011;23859;50.672;7.164;2023-02-26T05:01:36;13.25;;;4.20;;
38053;SDS011;23859;50.672;7.164;2023-02-26T05:04:02;16.27;;;4.65;;
38053;SDS011;23859;50.672;7.164;2023-02-26T05:06:28;7.15;;;4.20;;
38053;SDS011;23859;50.672;7.164;2023-02-26T05:08:54;5.25;;;3.95;;
38053;SDS011;23859;50.672;7.164;2023-02-26T05:11:20;11.30;;;4.47;;
38053;SDS011;23859;50.672;7.164;2023-02-26T05:13:46;9.70;;;4.18;;
38053;SDS011;23859;50.672;7.164;2023-02-26T05:16:12;9.65;;;5.93;;
38053;SDS011;23859;50.672;7.164;2023-02-26T05:18:38;12.88;;;3.92;;
38053;SDS011;23859;50.672;7.164;2023-02-26T05:21:04;10.85;;;4.82;;
38053;SDS011;23859;50.672;7.164;2023-02-26T05:23:30;8.38;;;4.72;;
38053;SDS011;23859;50.672;7.164;2023-02-26T05:25:56;9.70;;;4.43;;
38053;SDS011;23859;50.672;7.164;2023-02-26T05:28:23;10.43;;;3.90;;
38053;SDS011;23859;50.672;7.164;2023-02-26T05:30:50;7.97;;;4.32;;
38053;SDS011;23859;50.672;7.164;2023-02-26T05:33:17;10.57;;;4.70;;
38053;SDS011;23859;50.672;7.164;2023-02-26T05:35:44;9.90;;;4.45;;
38053;SDS011;23859;50.672;7.164;2023-02-26T05:38:10;8.90;;;4.93;;
38053;SDS011;23859;50.672;7.164;2023-02-26T05:40:36;7.78;;;4.20;;
38053;SDS011;23859;50.672;7.164;2023-02-26T05:43:02;7.43;;;4.32;;
38053;SDS011;23859;50.672;7.164;2023-02-26T05:45:28;7.93;;;4.88;;
38053;SDS011;23859;50.672;7.164;2023-02-26T05:47:54;9.70;;;4.28;;
38053;SDS011;23859;50.672;7.164;2023-02-26T05:50:20;10.57;;;4.78;;
38053;SDS011;23859;50.672;7.164;2023-02-26T05:52:47;13.02;;;4.75;;
38053;SDS011;23859;50.672;7.164;2023-02-26T05:55:13;9.73;;;4.13;;
38053;SDS011;23859;50.672;7.164;2023-02-26T05:57:39;7.85;;;4.72;;
38053;SDS011;23859;50.672;7.164;2023-02-26T06:00:06;8.73;;;4.75;;
38053;SDS011;23859;50.672;7.164;2023-02-26T06:02:33;8.70;;;4.43;;
38053;SDS011;23859;50.672;7.164;2023-02-26T06:04:59;7.57;;;4.20;;
38053;SDS011;23859;50.672;7.164;2023-02-26T06:07:25;6.40;;;4.53;;
38053;SDS011;23859;50.672;7.164;2023-02-26T06:09:51;9.90;;;4.53;;
38053;SDS011;23859;50.672;7.164;2023-02-26T06:12:17;7.50;;;4.20;;
38053;SDS011;23859;50.672;7.164;2023-02-26T06:14:43;10.23;;;4.85;;
38053;SDS011;23859;50.672;7.164;2023-02-26T06:17:09;7.53;;;5.75;;
38053;SDS011;23859;50.672;7.164;2023-02-26T06:19:35;9.70;;;5.30;;
38053;SDS011;23859;50.672;7.164;2023-02-26T06:22:01;15.45;;;5.40;;
38053;SDS011;23859;50.672;7.164;2023-02-26T06:24:27;13.35;;;4.95;;
38053;SDS011;23859;50.672;7.164;2023-02-26T06:26:54;8.60;;;3.80;;
38053;SDS011;23859;50.672;7.164;2023-02-26T06:29:20;10.00;;;4.78;;
38053;SDS011;23859;50.672;7.164;2023-02-26T06:31:47;10.02;;;4.65;;
38053;SDS011;23859;50.672;7.164;2023-02-26T06:34:13;8.43;;;3.95;;
38053;SDS011;23859;50.672;7.164;2023-02-26T06:36:39;11.40;;;4.72;;
38053;SDS011;23859;50.672;7.164;2023-02-26T06:39:05;6.18;;;3.67;;
38053;SDS011;23859;50.672;7.164;2023-02-26T06:41:32;6.38;;;3.97;;
38053;SDS011;23859;50.672;7.164;2023-02-26T06:43:58;5.10;;;3.95;;
38053;SDS011;23859;50.672;7.164;2023-02-26T06:46:24;8.13;;;4.47;;
38053;SDS011;23859;50.672;7.164;2023-02-26T06:48:53;9.20;;;4.18;;
38053;SDS011;23859;50.672;7.164;2023-02-26T06:51:19;11.15;;;4.85;;
38053;SDS011;23859;50.672;7.164;2023-02-26T06:53:45;11.60;;;4.68;;
38053;SDS011;23859;50.672;7.164;2023-02-26T06:56:11;9.07;;;4.47;;
38053;SDS011;23859;50.672;7.164;2023-02-26T06:58:37;10.25;;;5.00;;
38053;SDS011;23859;50.672;7.164;2023-02-26T07:01:03;5.38;;;3.70;;
38053;SDS011;23859;50.672;7.164;2023-02-26T07:03:29;9.75;;;4.25;;
38053;SDS011;23859;50.672;7.164;2023-02-26T07:05:55;7.45;;;4.03;;
38053;SDS011;23859;50.672;7.164;2023-02-26T07:08:22;5.43;;;3.17;;
38053;SDS011;23859;50.672;7.164;2023-02-26T07:10:48;7.15;;;3.97;;
38053;SDS011;23859;50.672;7.164;2023-02-26T07:13:14;6.75;;;3.58;;
38053;SDS011;23859;50.672;7.164;2023-02-26T07:15:41;8.18;;;3.78;;
38053;SDS011;23859;50.672;7.164;2023-02-26T07:18:07;10.48;;;3.70;;
38053;SDS011;23859;50.672;7.164;2023-02-26T07:20:33;8.20;;;3.55;;
38053;SDS011;23859;50.672;7.164;2023-02-26T07:22:59;10.23;;;3.85;;
38053;SDS011;23859;50.672;7.164;2023-02-26T07:25:26;8.63;;;4.15;;
38053;SDS011;23859;50.672;7.164;2023-02-26T07:27:52;7.82;;;3.50;;
38053;SDS011;23859;50.672;7.164;2023-02-26T07:30:19;6.68;;;3.17;;
38053;SDS011;23859;50.672;7.164;2023-02-26T07:32:45;7.75;;;3.25;;
38053;SDS011;23859;50.672;7.164;2023-02-26T07:35:11;7.18;;;3.45;;
38053;SDS011;23859;50.672;7.164;2023-02-26T07:37:37;10.73;;;3.38;;
38053;SDS011;23859;50.672;7.164;2023-02-26T07:40:03;8.52;;;3.90;;
38053;SDS011;23859;50.672;7.164;2023-02-26T07:42:30;6.55;;;3.28;;
38053;SDS011;23859;50.672;7.164;2023-02-26T07:44:56;11.15;;;4.05;;
38053;SDS011;23859;50.672;7.164;2023-02-26T07:47:23;8.13;;;3.63;;
38053;SDS011;23859;50.672;7.164;2023-02-26T07:49:49;12.63;;;4.20;;
38053;SDS011;23859;50.672;7.164;2023-02-26T07:52:15;5.38;;;3.72;;
38053;SDS011;23859;50.672;7.164;2023-02-26T07:54:41;8.20;;;3.67;;
38053;SDS011;23859;50.672;7.164;2023-02-26T07:57:07;5.60;;;3.10;;
38053;SDS011;23859;50.672;7.164;2023-02-26T07:59:33;9.35;;;3.63;;
38053;SDS011;23859;50.672;7.164;2023-02-26T08:01:59;10.15;;;3.30;;
38053;SDS011;23859;50.672;7.164;2023-02-26T08:04:25;7.32;;;2.85;;
38053;SDS011;23859;50.672;7.164;2023-02-26T08:06:51;4.47;;;3.10;;
38053;SDS011;23859;50.672;7.164;2023-02-26T08:09:18;6.30;;;3.65;;
38053;SDS011;23859;50.672;7.164;2023-02-26T08:11:45;7.25;;;4.00;;
38053;SDS011;23859;50.672;7.164;2023-02-26T08:14:11;8.52;;;3.92;;
38053;SDS011;23859;50.672;7.164;2023-02-26T08:16:38;9.35;;;3.38;;
38053;SDS011;23859;50.672;7.164;2023-02-26T08:19:04;8.85;;;4.43;;
38053;SDS011;23859;50.672;7.164;2023-02-26T08:21:30;7.65;;;4.18;;
38053;SDS011;23859;50.672;7.164;2023-02-26T08:23:56;5.70;;;3.42;;
38053;SDS011;23859;50.672;7.164;2023-02-26T08:26:22;9.32;;;4.40;;
38053;SDS011;23859;50.672;7.164;2023-02-26T08:28:48;5.93;;;3.80;;
38053;SDS011;23859;50.672;7.164;2023-02-26T08:31:15;9.27;;;2.97;;
38053;SDS011;23859;50.672;7.164;2023-02-26T08:33:41;8.85;;;3.92;;
38053;SDS011;23859;50.672;7.164;2023-02-26T08:36:07;3.42;;;3.08;;
38053;SDS011;23859;50.672;7.164;2023-02-26T08:38:34;7.18;;;4.18;;
38053;SDS011;23859;50.672;7.164;2023-02-26T08:41:00;6.85;;;3.20;;
38053;SDS011;23859;50.672;7.164;2023-02-26T08:43:26;8.40;;;3.30;;
38053;SDS011;23859;50.672;7.164;2023-02-26T08:45:54;5.13;;;3.30;;
38053;SDS011;23859;50.672;7.164;2023-02-26T08:48:22;3.72;;;3.15;;
38053;SDS011;23859;50.672;7.164;2023-02-26T08:50:48;7.47;;;3.53;;
38053;SDS011;23859;50.672;7.164;2023-02-26T08:53:15;4.35;;;3.00;;
38053;SDS011;23859;50.672;7.164;2023-02-26T08:55:41;10.20;;;3.17;;
38053;SDS011;23859;50.672;7.164;2023-02-26T08:58:09;6.07;;;3.35;;
38053;SDS011;23859;50.672;7.164;2023-02-26T09:00:35;5.18;;;3.58;;
38053;SDS011;23859;50.672;7.164;2023-02-26T09:03:01;6.13;;;2.88;;
38053;SDS011;23859;50.672;7.164;2023-02-26T09:05:27;4.95;;;2.88;;
38053;SDS011;23859;50.672;7.164;2023-02-26T09:07:53;4.75;;;3.13;;
38053;SDS011;23859;50.672;7.164;2023-02-26T09:10:19;4.97;;;3.20;;
38053;SDS011;23859;50.672;7.164;2023-02-26T09:12:46;7.10;;;2.85;;
38053;SDS011;23859;50.672;7.164;2023-02-26T09:15:12;4.32;;;2.60;;
38053;SDS011;23859;50.672;7.164;2023-02-26T09:17:39;4.28;;;2.20;;
38053;SDS011;23859;50.672;7.164;2023-02-26T09:20:05;10.82;;;2.95;;
38053;SDS011;23859;50.672;7.164;2023-02-26T09:22:33;3.67;;;2.40;;
38053;SDS011;23859;50.672;7.164;2023-02-26T09:24:59;5.00;;;2.80;;
38053;SDS011;23859;50.672;7.164;2023-02-26T09:27:25;4.93;;;2.53;;
38053;SDS011;23859;50.672;7.164;2023-02-26T09:29:52;3.25;;;1.92;;
38053;SDS011;23859;50.672;7.164;2023-02-26T09:32:18;3.80;;;2.28;;
38053;SDS011;23859;50.672;7.164;2023-02-26T09:34:44;5.22;;;2.20;;
38053;SDS011;23859;50.672;7.164;2023-02-26T09:37:10;3.60;;;2.42;;
38053;SDS011;23859;50.672;7.164;2023-02-26T09:39:36;4.43;;;2.67;;
38053;SDS011;23859;50.672;7.164;2023-02-26T09:44:53;3.88;;;2.38;;
38053;SDS011;23859;50.672;7.164;2023-02-26T09:47:27;4.22;;;2.50;;
38053;SDS011;23859;50.672;7.164;2023-02-26T09:50:12;6.03;;;2.30;;
38053;SDS011;23859;50.672;7.164;2023-02-26T09:53:04;6.43;;;2.57;;
38053;SDS011;23859;50.672;7.164;2023-02-26T09:56:03;4.38;;;1.98;;
38053;SDS011;23859;50.672;7.164;2023-02-26T09:58:33;3.15;;;1.80;;
38053;SDS011;23859;50.672;7.164;2023-02-26T10:01:18;4.10;;;2.53;;
38053;SDS011;23859;50.672;7.164;2023-02-26T10:06:53;3.47;;;1.75;;
38053;SDS011;23859;50.672;7.164;2023-02-26T10:09:48;6.32;;;2.03;;
38053;SDS011;23859;50.672;7.164;2023-02-26T10:12:29;5.50;;;2.45;;
38053;SDS011;23859;50.672;7.164;2023-02-26T10:23:17;4.63;;;2.35;;
38053;SDS011;23859;50.672;7.164;2023-02-26T10:26:04;1.50;;;1.10;;
38053;SDS011;23859;50.672;7.164;2023-02-26T10:28:56;5.75;;;1.33;;
38053;SDS011;23859;50.672;7.164;2023-02-26T10:32:05;2.72;;;1.10;;
38053;SDS011;23859;50.672;7.164;2023-02-26T10:34:38;2.63;;;1.30;;
38053;SDS011;23859;50.672;7.164;2023-02-26T10:39:55;1.73;;;1.05;;
38053;SDS011;23859;50.672;7.164;2023-02-26T10:51:25;2.25;;;1.30;;
38053;SDS011;23859;50.672;7.164;2023-02-26T10:54:01;1.30;;;1.02;;
38053;SDS011;23859;50.672;7.164;2023-02-26T10:56:44;3.47;;;1.65;;
38053;SDS011;23859;50.672;7.164;2023-02-26T10:59:11;1.83;;;1.05;;
38053;SDS011;23859;50.672;7.164;2023-02-26T11:01:37;2.85;;;1.35;;
38053;SDS011;23859;50.672;7.164;2023-02-26T11:04:05;2.72;;;1.25;;
38053;SDS011;23859;50.672;7.164;2023-02-26T11:06:37;2.10;;;0.90;;
38053;SDS011;23859;50.672;7.164;2023-02-26T11:09:17;4.75;;;1.17;;
38053;SDS011;23859;50.672;7.164;2023-02-26T11:11:53;3.05;;;0.80;;
38053;SDS011;23859;50.672;7.164;2023-02-26T11:14:48;1.48;;;0.80;;
38053;SDS011;23859;50.672;7.164;2023-02-26T11:17:18;7.60;;;1.20;;
38053;SDS011;23859;50.672;7.164;2023-02-26T11:20:04;9.13;;;0.90;;
38053;SDS011;23859;50.672;7.164;2023-02-26T11:22:51;3.40;;;0.80;;
38053;SDS011;23859;50.672;7.164;2023-02-26T11:25:22;3.80;;;0.90;;
38053;SDS011;23859;50.672;7.164;2023-02-26T11:27:57;1.98;;;0.90;;
38053;SDS011;23859;50.672;7.164;2023-02-26T11:30:50;2.13;;;0.80;;
38053;SDS011;23859;50.672;7.164;2023-02-26T11:33:21;1.35;;;0.85;;
38053;SDS011;23859;50.672;7.164;2023-02-26T11:35:51;6.07;;;1.27;;
38053;SDS011;23859;50.672;7.164;2023-02-26T11:38:21;2.35;;;1.02;;
38053;SDS011;23859;50.672;7.164;2023-02-26T11:40:54;4.22;;;1.35;;
38053;SDS011;23859;50.672;7.164;2023-02-26T11:43:22;2.40;;;0.70;;
38053;SDS011;23859;50.672;7.164;2023-02-26T11:45:57;2.33;;;0.90;;
38053;SDS011;23859;50.672;7.164;2023-02-26T11:48:27;2.30;;;0.80;;
38053;SDS011;23859;50.672;7.164;2023-02-26T11:50:58;2.47;;;1.00;;
38053;SDS011;23859;50.672;7.164;2023-02-26T11:56:03;3.25;;;1.42;;
38053;SDS011;23859;50.672;7.164;2023-02-26T11:58:38;3.80;;;1.10;;
38053;SDS011;23859;50.672;7.164;2023-02-26T12:01:08;2.13;;;1.10;;
38053;SDS011;23859;50.672;7.164;2023-02-26T12:03:37;1.27;;;1.05;;
38053;SDS011;23859;50.672;7.164;2023-02-26T12:06:17;2.58;;;1.02;;
38053;SDS011;23859;50.672;7.164;2023-02-26T12:08:45;3.85;;;0.80;;
38053;SDS011;23859;50.672;7.164;2023-02-26T12:14:07;4.63;;;1.30;;
38053;SDS011;23859;50.672;7.164;2023-02-26T12:19:54;3.00;;;1.20;;
38053;SDS011;23859;50.672;7.164;2023-02-26T12:22:34;2.13;;;1.15;;
38053;SDS011;23859;50.672;7.164;2023-02-26T12:44:54;1.13;;;0.70;;
38053;SDS011;23859;50.672;7.164;2023-02-26T12:55:48;2.00;;;1.00;;
38053;SDS011;23859;50.672;7.164;2023-02-26T12:58:41;2.38;;;1.48;;
38053;SDS011;23859;50.672;7.164;2023-02-26T13:07:55;3.28;;;1.10;;
38053;SDS011;23859;50.672;7.164;2023-02-26T13:10:35;5.47;;;2.90;;
38053;SDS011;23859;50.672;7.164;2023-02-26T13:13:24;3.42;;;2.13;;
38053;SDS011;23859;50.672;7.164;2023-02-26T13:21:18;2.42;;;1.23;;
38053;SDS011;23859;50.672;7.164;2023-02-26T13:27:01;1.85;;;1.20;;
38053;SDS011;23859;50.672;7.164;2023-02-26T13:29:31;2.97;;;0.88;;
38053;SDS011;23859;50.672;7.164;2023-02-26T13:32:23;5.07;;;1.00;;
38053;SDS011;23859;50.672;7.164;2023-02-26T13:37:44;2.95;;;1.00;;
38053;SDS011;23859;50.672;7.164;2023-02-26T13:45:49;3.70;;;1.17;;
38053;SDS011;23859;50.672;7.164;2023-02-26T13:51:13;3.85;;;1.20;;
38053;SDS011;23859;50.672;7.164;2023-02-26T13:54:40;1.65;;;0.93;;
38053;SDS011;23859;50.672;7.164;2023-02-26T13:56:52;3.30;;;1.15;;
38053;SDS011;23859;50.672;7.164;2023-02-26T13:59:45;1.52;;;0.90;;
38053;SDS011;23859;50.672;7.164;2023-02-26T14:04:53;1.65;;;1.25;;
38053;SDS011;23859;50.672;7.164;2023-02-26T14:10:25;1.67;;;0.90;;
38053;SDS011;23859;50.672;7.164;2023-02-26T14:13:18;5.30;;;1.20;;
38053;SDS011;23859;50.672;7.164;2023-02-26T14:24:05;1.52;;;1.27;;
38053;SDS011;23859;50.672;7.164;2023-02-26T14:26:48;1.13;;;0.80;;
38053;SDS011;23859;50.672;7.164;2023-02-26T14:34:45;2.05;;;0.73;;
38053;SDS011;23859;50.672;7.164;2023-02-26T14:37:21;1.13;;;0.80;;
38053;SDS011;23859;50.672;7.164;2023-02-26T14:39:58;1.55;;;1.00;;
38053;SDS011;23859;50.672;7.164;2023-02-26T14:42:39;1.05;;;0.82;;
38053;SDS011;23859;50.672;7.164;2023-02-26T14:45:28;3.05;;;0.82;;
38053;SDS011;23859;50.672;7.164;2023-02-26T14:47:59;1.23;;;0.90;;
38053;SDS011;23859;50.672;7.164;2023-02-26T14:50:32;1.23;;;0.80;;
38053;SDS011;23859;50.672;7.164;2023-02-26T15:01:50;1.73;;;0.90;;
38053;SDS011;23859;50.672;7.164;2023-02-26T15:04:23;2.40;;;1.33;;
38053;SDS011;23859;50.672;7.164;2023-02-26T15:09:56;2.63;;;1.02;;
38053;SDS011;23859;50.672;7.164;2023-02-26T15:13:08;1.70;;;0.88;;
38053;SDS011;23859;50.672;7.164;2023-02-26T15:16:00;2.38;;;1.05;;
38053;SDS011;23859;50.672;7.164;2023-02-26T15:18:51;4.03;;;1.08;;
38053;SDS011;23859;50.672;7.164;2023-02-26T15:24:21;2.95;;;1.40;;
38053;SDS011;23859;50.672;7.164;2023-02-26T15:26:50;5.95;;;1.75;;
38053;SDS011;23859;50.672;7.164;2023-02-26T15:29:20;3.75;;;1.20;;
38053;SDS011;23859;50.672;7.164;2023-02-26T15:31:53;3.13;;;1.13;;
38053;SDS011;23859;50.672;7.164;2023-02-26T15:34:21;2.13;;;1.25;;
38053;SDS011;23859;50.672;7.164;2023-02-26T15:36:49;6.18;;;1.80;;
38053;SDS011;23859;50.672;7.164;2023-02-26T15:39:18;4.07;;;1.20;;
38053;SDS011;23859;50.672;7.164;2023-02-26T15:41:48;3.13;;;1.27;;
38053;SDS011;23859;50.672;7.164;2023-02-26T15:44:21;2.42;;;1.10;;
38053;SDS011;23859;50.672;7.164;2023-02-26T15:46:54;3.30;;;1.38;;
38053;SDS011;23859;50.672;7.164;2023-02-26T15:49:32;2.70;;;1.23;;
38053;SDS011;23859;50.672;7.164;2023-02-26T15:52:02;3.45;;;1.00;;
38053;SDS011;23859;50.672;7.164;2023-02-26T15:54:34;1.92;;;1.02;;
38053;SDS011;23859;50.672;7.164;2023-02-26T15:57:12;3.60;;;1.08;;
38053;SDS011;23859;50.672;7.164;2023-02-26T15:59:43;1.77;;;1.10;;
38053;SDS011;23859;50.672;7.164;2023-02-26T16:02:12;2.20;;;0.90;;
38053;SDS011;23859;50.672;7.164;2023-02-26T16:05:01;1.30;;;0.85;;
38053;SDS011;23859;50.672;7.164;2023-02-26T16:07:28;5.40;;;1.20;;
38053;SDS011;23859;50.672;7.164;2023-02-26T16:09:54;2.40;;;1.23;;
38053;SDS011;23859;50.672;7.164;2023-02-26T16:12:22;4.38;;;1.52;;
38053;SDS011;23859;50.672;7.164;2023-02-26T16:14:58;1.10;;;1.00;;
38053;SDS011;23859;50.672;7.164;2023-02-26T16:17:30;2.30;;;1.30;;
38053;SDS011;23859;50.672;7.164;2023-02-26T16:20:01;2.22;;;1.33;;
38053;SDS011;23859;50.672;7.164;2023-02-26T16:22:34;3.85;;;1.60;;
38053;SDS011;23859;50.672;7.164;2023-02-26T16:27:39;1.98;;;1.42;;
38053;SDS011;23859;50.672;7.164;2023-02-26T16:30:07;3.38;;;1.05;;
38053;SDS011;23859;50.672;7.164;2023-02-26T16:32:43;5.40;;;1.30;;
38053;SDS011;23859;50.672;7.164;2023-02-26T16:35:15;1.27;;;1.02;;
38053;SDS011;23859;50.672;7.164;2023-02-26T16:37:45;5.72;;;1.23;;
38053;SDS011;23859;50.672;7.164;2023-02-26T16:40:18;7.00;;;1.30;;
38053;SDS011;23859;50.672;7.164;2023-02-26T16:48:09;2.53;;;1.30;;
38053;SDS011;23859;50.672;7.164;2023-02-26T16:50:40;4.43;;;1.30;;
38053;SDS011;23859;50.672;7.164;2023-02-26T16:53:16;2.17;;;1.50;;
38053;SDS011;23859;50.672;7.164;2023-02-26T16:55:46;2.40;;;1.48;;
38053;SDS011;23859;50.672;7.164;2023-02-26T16:58:19;5.15;;;2.10;;
38053;SDS011;23859;50.672;7.164;2023-02-26T17:00:49;4.18;;;1.77;;
38053;SDS011;23859;50.672;7.164;2023-02-26T17:03:23;3.63;;;1.48;;
38053;SDS011;23859;50.672;7.164;2023-02-26T17:08:25;2.88;;;1.60;;
38053;SDS011;23859;50.672;7.164;2023-02-26T17:11:02;3.38;;;1.60;;
38053;SDS011;23859;50.672;7.164;2023-02-26T17:13:32;4.13;;;1.70;;
38053;SDS011;23859;50.672;7.164;2023-02-26T17:16:00;2.88;;;1.40;;
38053;SDS011;23859;50.672;7.164;2023-02-26T17:18:28;2.30;;;1.50;;
38053;SDS011;23859;50.672;7.164;2023-02-26T17:20:55;2.70;;;1.30;;
38053;SDS011;23859;50.672;7.164;2023-02-26T17:23:22;1.95;;;1.33;;
38053;SDS011;23859;50.672;7.164;2023-02-26T17:25:53;3.90;;;1.45;;
38053;SDS011;23859;50.672;7.164;2023-02-26T17:28:24;4.80;;;1.73;;
38053;SDS011;23859;50.672;7.164;2023-02-26T17:30:51;3.20;;;1.90;;
38053;SDS011;23859;50.672;7.164;2023-02-26T17:33:18;4.38;;;1.80;;
38053;SDS011;23859;50.672;7.164;2023-02-26T17:35:45;6.80;;;2.72;;
38053;SDS011;23859;50.672;7.164;2023-02-26T17:38:12;4.50;;;2.63;;
38053;SDS011;23859;50.672;7.164;2023-02-26T17:40:40;5.80;;;2.67;;
38053;SDS011;23859;50.672;7.164;2023-02-26T17:43:08;4.63;;;2.65;;
38053;SDS011;23859;50.672;7.164;2023-02-26T17:45:34;2.58;;;1.88;;
38053;SDS011;23859;50.672;7.164;2023-02-26T17:48:03;3.88;;;1.83;;
38053;SDS011;23859;50.672;7.164;2023-02-26T17:53:11;4.20;;;1.95;;
38053;SDS011;23859;50.672;7.164;2023-02-26T17:55:37;4.22;;;1.90;;